createdAt,value
2022-08-26T00:08:43.813Z,10.93
2022-08-26T00:13:49.936Z,9.35
2022-08-26T00:18:53.246Z,9.30
2022-08-26T00:23:56.381Z,7.68
2022-08-26T00:28:58.963Z,7.60
2022-08-26T00:39:07.402Z,8.30
2022-08-26T00:44:11.194Z,7.03
2022-08-26T00:49:17.419Z,7.85
2022-08-26T00:54:23.468Z,6.10
2022-08-26T00:59:26.621Z,6.47
2022-08-26T01:04:29.626Z,5.97
2022-08-26T01:09:32.854Z,6.43
2022-08-26T01:14:41.016Z,5.97
2022-08-26T01:20:04.434Z,5.20
2022-08-26T01:25:07.467Z,5.07
2022-08-26T01:30:11.684Z,4.50
2022-08-26T01:35:14.594Z,5.20
2022-08-26T01:40:22.187Z,4.45
2022-08-26T01:45:29.002Z,4.95
2022-08-26T01:50:34.630Z,4.00
2022-08-26T01:55:40.388Z,3.88
2022-08-26T02:00:44.337Z,4.63
2022-08-26T02:05:51.428Z,3.80
2022-08-26T02:10:55.717Z,3.88
2022-08-26T02:16:00.871Z,3.75
2022-08-26T02:21:06.649Z,2.83
2022-08-26T02:26:18.035Z,4.00
2022-08-26T02:31:21.982Z,3.38
2022-08-26T02:36:28.524Z,3.20
2022-08-26T02:41:31.859Z,3.63
2022-08-26T02:46:36.174Z,2.80
2022-08-26T02:51:40.180Z,3.00
2022-08-26T02:56:45.692Z,2.90
2022-08-26T03:01:49.636Z,3.15
2022-08-26T03:11:55.570Z,2.50
2022-08-26T03:16:59.601Z,2.60
2022-08-26T03:22:02.798Z,2.45
2022-08-26T03:27:08.548Z,2.50
2022-08-26T03:32:11.276Z,2.63
2022-08-26T03:37:14.477Z,2.65
2022-08-26T03:42:17.241Z,2.57
2022-08-26T03:47:24.044Z,2.30
2022-08-26T03:52:27.157Z,2.30
2022-08-26T03:57:30.581Z,2.00
2022-08-26T04:02:33.350Z,3.00
2022-08-26T04:07:36.728Z,2.13
2022-08-26T04:12:59.386Z,2.15
2022-08-26T04:18:01.996Z,2.55
2022-08-26T04:23:05.835Z,2.60
2022-08-26T04:28:08.723Z,2.50
2022-08-26T04:33:13.815Z,3.10
2022-08-26T04:38:16.818Z,2.78
2022-08-26T04:43:19.611Z,2.50
2022-08-26T04:48:22.100Z,2.90
2022-08-26T04:53:24.797Z,2.40
2022-08-26T04:58:27.638Z,2.53
2022-08-26T05:03:31.188Z,2.70
2022-08-26T05:08:33.844Z,3.05
2022-08-26T05:13:39.197Z,2.50
2022-08-26T05:18:43.561Z,2.60
2022-08-26T05:23:48.536Z,2.78
2022-08-26T05:28:54.739Z,3.22
2022-08-26T05:33:57.940Z,2.70
2022-08-26T05:39:01.631Z,2.72
2022-08-26T05:49:12.309Z,3.30
2022-08-26T05:54:22.102Z,3.83
2022-08-26T05:59:25.300Z,2.90
2022-08-26T06:04:30.090Z,2.70
2022-08-26T06:09:33.021Z,3.13
2022-08-26T06:14:37.130Z,2.70
2022-08-26T06:19:41.391Z,2.80
2022-08-26T06:25:02.387Z,2.20
2022-08-26T06:30:05.570Z,2.53
2022-08-26T06:35:12.086Z,2.40
2022-08-26T06:40:15.192Z,2.13
2022-08-26T06:45:20.471Z,2.03
2022-08-26T06:50:23.354Z,2.60
2022-08-26T06:55:27.134Z,2.05
2022-08-26T07:00:32.318Z,2.00
2022-08-26T07:05:35.873Z,2.67
2022-08-26T07:10:38.414Z,2.50
2022-08-26T07:15:42.627Z,2.10
2022-08-26T07:20:45.515Z,2.15
2022-08-26T07:25:48.087Z,2.75
2022-08-26T07:30:50.756Z,2.35
2022-08-26T07:35:56.104Z,2.70
2022-08-26T07:40:58.867Z,2.45
2022-08-26T07:46:02.409Z,2.88
2022-08-26T07:51:05.311Z,2.22
2022-08-26T07:56:07.976Z,2.30
2022-08-26T08:01:12.392Z,2.53
2022-08-26T08:06:16.929Z,3.13
2022-08-26T08:11:22.893Z,2.72
2022-08-26T08:16:26.351Z,2.60
2022-08-26T08:21:29.223Z,2.42
2022-08-26T08:26:32.146Z,2.38
2022-08-26T08:36:58.447Z,2.65
2022-08-26T08:42:19.496Z,2.15
2022-08-26T08:47:34.217Z,2.00
2022-08-26T08:52:37.134Z,1.90
2022-08-26T08:57:53.660Z,2.30
2022-08-26T09:03:04.343Z,2.05
2022-08-26T09:08:12.172Z,2.67
2022-08-26T09:13:33.846Z,1.92
2022-08-26T09:19:00.107Z,2.33
2022-08-26T09:24:04.969Z,2.20
2022-08-26T09:34:31.376Z,1.98
2022-08-26T09:39:37.516Z,2.03
2022-08-26T09:44:58.339Z,1.70
2022-08-26T09:50:20.547Z,2.28
2022-08-26T09:55:23.811Z,1.95
2022-08-26T10:00:33.256Z,2.35
2022-08-26T10:05:45.576Z,2.47
2022-08-26T10:10:49.327Z,2.65
2022-08-26T10:16:00.104Z,2.78
2022-08-26T10:21:14.936Z,2.42
2022-08-26T10:26:36.331Z,2.25
2022-08-26T10:31:51.397Z,1.98
2022-08-26T10:37:14.409Z,2.30
2022-08-26T10:42:28.781Z,2.00
2022-08-26T10:47:37.484Z,2.45
2022-08-26T10:53:01.383Z,1.90
2022-08-26T10:58:26.162Z,1.40
2022-08-26T11:04:09.629Z,2.22
2022-08-26T11:09:35.580Z,2.15
2022-08-26T11:14:53.672Z,1.40
2022-08-26T11:20:07.451Z,1.50
2022-08-26T11:25:18.394Z,1.52
2022-08-26T11:30:21.402Z,1.48
2022-08-26T11:35:27.650Z,1.88
2022-08-26T11:40:37.708Z,1.48
2022-08-26T11:45:48.754Z,1.90
2022-08-26T11:51:13.545Z,1.90
2022-08-26T11:56:24.608Z,1.58
2022-08-26T12:01:37.427Z,1.65
2022-08-26T12:06:46.878Z,1.67
2022-08-26T12:11:49.875Z,1.65
2022-08-26T12:16:54.181Z,1.88
2022-08-26T12:22:17.232Z,1.88
2022-08-26T12:27:48.680Z,1.60
2022-08-26T12:33:22.288Z,1.75
2022-08-26T12:38:27.610Z,1.50
2022-08-26T12:43:44.780Z,1.35
2022-08-26T12:48:49.411Z,1.70
2022-08-26T12:53:52.443Z,1.58
2022-08-26T12:59:10.299Z,1.40
2022-08-26T13:04:41.630Z,1.75
2022-08-26T13:09:44.474Z,1.38
2022-08-26T13:14:47.191Z,1.20
2022-08-26T13:19:49.924Z,1.02
2022-08-26T13:24:55.384Z,1.10
2022-08-26T13:29:59.265Z,1.30
2022-08-26T13:35:05.597Z,1.30
2022-08-26T13:40:09.579Z,1.60
2022-08-26T13:50:14.954Z,1.58
2022-08-26T13:55:17.591Z,1.17
2022-08-26T14:00:20.767Z,1.73
2022-08-26T14:05:23.404Z,1.55
2022-08-26T14:10:26.647Z,1.20
2022-08-26T14:15:32.022Z,1.70
2022-08-26T14:20:35.960Z,1.65
2022-08-26T14:25:39.246Z,1.40
2022-08-26T14:30:43.346Z,1.52
2022-08-26T14:35:47.940Z,2.10
2022-08-26T14:40:52.567Z,1.83
2022-08-26T14:45:55.141Z,1.45
2022-08-26T14:50:57.986Z,1.55
2022-08-26T14:56:00.710Z,1.70
2022-08-26T15:01:04.214Z,1.55
2022-08-26T15:06:07.304Z,1.70
2022-08-26T15:11:28.944Z,1.42
2022-08-26T15:16:32.226Z,1.40
2022-08-26T15:21:37.628Z,1.70
2022-08-26T15:26:40.446Z,1.77
2022-08-26T15:31:43.281Z,1.50
2022-08-26T15:36:47.150Z,1.60
2022-08-26T15:41:50.295Z,2.00
2022-08-26T15:46:58.416Z,1.80
2022-08-26T15:52:05.166Z,2.30
2022-08-26T15:57:10.828Z,1.80
2022-08-26T16:02:14.636Z,2.17
2022-08-26T16:07:17.536Z,1.80
2022-08-26T16:12:21.380Z,2.13
2022-08-26T16:17:24.241Z,1.80
2022-08-26T16:22:28.573Z,2.23
2022-08-26T16:27:32.488Z,2.00
2022-08-26T16:37:39.399Z,2.08
2022-08-26T16:42:42.624Z,1.92
2022-08-26T16:52:54.250Z,2.30
2022-08-26T16:57:58.953Z,2.38
2022-08-26T17:03:02.072Z,2.80
2022-08-26T17:08:05.226Z,2.50
2022-08-26T17:13:08.576Z,18.30
2022-08-26T17:18:13.343Z,2.40
2022-08-26T17:23:17.380Z,3.25
2022-08-26T17:28:21.336Z,2.63
2022-08-26T17:33:24.562Z,2.78
2022-08-26T17:43:32.431Z,2.97
2022-08-26T17:48:36.535Z,3.03
2022-08-26T17:53:41.384Z,2.20
2022-08-26T17:58:48.160Z,2.20
2022-08-26T18:04:00.124Z,2.33
2022-08-26T18:09:03.874Z,2.58
2022-08-26T18:14:07.054Z,2.25
2022-08-26T18:19:10.965Z,2.47
2022-08-26T18:24:14.492Z,2.60
2022-08-26T18:29:20.078Z,2.40
2022-08-26T18:34:22.793Z,2.20
2022-08-26T18:39:27.558Z,1.95
2022-08-26T18:44:30.153Z,2.25
2022-08-26T18:49:32.715Z,2.40
2022-08-26T18:54:36.413Z,2.20
2022-08-26T18:59:41.866Z,2.47
2022-08-26T19:04:44.611Z,2.40
2022-08-26T19:09:47.415Z,2.50
2022-08-26T19:14:56.455Z,2.28
2022-08-26T19:20:00.125Z,2.22
2022-08-26T19:25:02.825Z,2.50
2022-08-26T19:30:07.055Z,2.03
2022-08-26T19:35:10.087Z,2.28
2022-08-26T19:40:12.756Z,2.40
2022-08-26T19:45:24.841Z,2.50
2022-08-26T19:50:30.243Z,2.53
2022-08-26T19:55:33.691Z,2.63
2022-08-26T20:00:39.653Z,2.50
2022-08-26T20:05:42.288Z,3.00
2022-08-26T20:10:45.996Z,2.80
2022-08-26T20:15:48.817Z,2.65
2022-08-26T20:21:09.843Z,3.72
2022-08-26T20:26:13.423Z,2.78
2022-08-26T20:31:18.230Z,2.70
2022-08-26T20:36:22.869Z,2.50
2022-08-26T20:41:25.832Z,2.40
2022-08-26T20:46:29.046Z,2.50
2022-08-26T20:51:32.305Z,2.70
2022-08-26T20:56:35.550Z,3.33
2022-08-26T21:01:41.927Z,2.50
2022-08-26T21:06:52.215Z,2.80
2022-08-26T21:11:59.307Z,2.67
2022-08-26T21:17:02.585Z,3.05
2022-08-26T21:22:05.542Z,2.83
2022-08-26T21:27:08.212Z,2.65
2022-08-26T21:32:12.494Z,2.63
2022-08-26T21:37:18.704Z,3.08
2022-08-26T21:42:21.740Z,3.03
2022-08-26T21:47:24.606Z,2.63
2022-08-26T21:52:27.313Z,3.03
2022-08-26T21:57:30.083Z,2.97
2022-08-26T22:02:33.193Z,2.60
2022-08-26T22:07:35.969Z,2.90
2022-08-26T22:12:38.740Z,2.70
2022-08-26T22:17:41.488Z,2.47
2022-08-26T22:22:45.119Z,2.67
2022-08-26T22:27:47.751Z,3.00
2022-08-26T22:32:50.967Z,2.72
2022-08-26T22:37:53.697Z,2.60
2022-08-26T22:43:00.303Z,2.80
2022-08-26T22:48:05.069Z,2.60
2022-08-26T22:58:11.686Z,2.58
2022-08-26T23:03:16.965Z,2.25
2022-08-26T23:08:20.152Z,2.90
2022-08-26T23:13:23.060Z,2.60
2022-08-26T23:18:25.843Z,2.80
2022-08-26T23:23:28.646Z,2.30
2022-08-26T23:28:31.955Z,2.58
2022-08-26T23:33:53.383Z,2.70
2022-08-26T23:38:56.494Z,3.30
2022-08-26T23:44:03.284Z,3.30
2022-08-26T23:49:06.514Z,2.95
2022-08-26T23:54:09.110Z,3.08
2022-08-26T23:59:12.114Z,3.03
